createdAt,value
2022-09-21T00:01:30.753Z,3.70
2022-09-21T00:04:00.440Z,3.83
2022-09-21T00:06:34.058Z,3.30
2022-09-21T00:09:03.900Z,3.50
2022-09-21T00:11:34.210Z,3.47
2022-09-21T00:14:04.638Z,3.10
2022-09-21T00:16:32.945Z,3.70
2022-09-21T00:19:01.124Z,3.67
2022-09-21T00:21:29.921Z,3.43
2022-09-21T00:23:59.314Z,3.37
2022-09-21T00:26:28.474Z,4.00
2022-09-21T00:29:00.235Z,3.67
2022-09-21T00:31:29.853Z,3.13
2022-09-21T00:34:00.078Z,3.07
2022-09-21T00:36:29.099Z,3.20
2022-09-21T00:38:58.763Z,3.17
2022-09-21T00:41:27.245Z,3.40
2022-09-21T00:44:25.833Z,4.10
2022-09-21T00:46:56.971Z,3.23
2022-09-21T00:49:26.340Z,3.63
2022-09-21T00:51:55.113Z,3.47
2022-09-21T00:54:26.777Z,3.87
2022-09-21T00:56:56.494Z,3.70
2022-09-21T00:59:29.979Z,3.77
2022-09-21T01:01:59.731Z,3.50
2022-09-21T01:04:28.620Z,3.37
2022-09-21T01:06:57.486Z,3.60
2022-09-21T01:09:25.695Z,3.30
2022-09-21T01:12:09.014Z,3.50
2022-09-21T01:14:58.977Z,3.20
2022-09-21T01:17:37.557Z,3.17
2022-09-21T01:20:35.326Z,3.10
2022-09-21T01:23:17.220Z,2.87
2022-09-21T01:26:01.413Z,2.90
2022-09-21T01:28:37.979Z,3.17
2022-09-21T01:31:13.910Z,3.03
2022-09-21T01:33:48.687Z,2.90
2022-09-21T01:36:20.365Z,3.50
2022-09-21T01:38:51.374Z,2.83
2022-09-21T01:41:22.394Z,3.20
2022-09-21T01:43:55.862Z,3.27
2022-09-21T01:46:30.142Z,3.20
2022-09-21T01:49:04.930Z,2.90
2022-09-21T01:51:34.855Z,4.03
2022-09-21T01:54:09.467Z,3.57
2022-09-21T01:56:41.732Z,3.10
2022-09-21T01:59:15.305Z,3.67
2022-09-21T02:01:47.786Z,3.40
2022-09-21T02:04:15.690Z,3.27
2022-09-21T02:06:48.288Z,3.57
2022-09-21T02:09:16.150Z,3.10
2022-09-21T02:11:45.212Z,3.50
2022-09-21T02:14:14.942Z,3.73
2022-09-21T02:16:50.171Z,2.83
2022-09-21T02:19:27.903Z,3.27
2022-09-21T02:22:05.049Z,3.30
2022-09-21T02:24:42.195Z,3.23
2022-09-21T02:27:19.625Z,3.47
2022-09-21T02:29:53.978Z,3.33
2022-09-21T02:32:37.363Z,3.13
2022-09-21T02:35:09.238Z,3.83
2022-09-21T02:37:41.413Z,3.17
2022-09-21T02:40:18.724Z,3.30
2022-09-21T02:42:49.573Z,3.10
2022-09-21T02:45:22.154Z,3.20
2022-09-21T02:47:56.178Z,3.23
2022-09-21T02:50:28.224Z,3.47
2022-09-21T02:52:56.982Z,3.57
2022-09-21T02:55:25.909Z,3.17
2022-09-21T02:57:56.422Z,3.97
2022-09-21T03:00:24.293Z,3.67
2022-09-21T03:02:53.353Z,4.03
2022-09-21T03:05:21.150Z,3.30
2022-09-21T03:07:48.892Z,3.27
2022-09-21T03:10:17.403Z,4.10
2022-09-21T03:12:46.054Z,3.70
2022-09-21T03:15:17.229Z,3.57
2022-09-21T03:17:44.998Z,3.10
2022-09-21T03:20:14.150Z,3.07
2022-09-21T03:22:41.870Z,3.40
2022-09-21T03:25:10.557Z,3.67
2022-09-21T03:27:38.260Z,3.87
2022-09-21T03:30:07.111Z,3.70
2022-09-21T03:32:34.706Z,4.10
2022-09-21T03:35:02.420Z,3.97
2022-09-21T03:37:31.452Z,7.80
2022-09-21T03:40:00.205Z,3.07
2022-09-21T03:42:27.925Z,3.87
2022-09-21T03:44:55.560Z,3.80
2022-09-21T03:47:23.483Z,4.23
2022-09-21T03:49:51.172Z,4.17
2022-09-21T03:52:18.909Z,3.70
2022-09-21T03:54:47.947Z,3.37
2022-09-21T03:57:15.673Z,3.73
2022-09-21T03:59:43.564Z,2.83
2022-09-21T04:02:11.294Z,3.80
2022-09-21T04:04:38.949Z,3.87
2022-09-21T04:07:06.612Z,3.90
2022-09-21T04:09:34.328Z,3.67
2022-09-21T04:12:03.631Z,3.90
2022-09-21T04:14:31.467Z,3.37
2022-09-21T04:16:59.059Z,3.80
2022-09-21T04:19:26.748Z,3.40
2022-09-21T04:21:55.983Z,3.43
2022-09-21T04:24:24.623Z,3.63
2022-09-21T04:26:52.493Z,4.97
2022-09-21T04:29:21.544Z,3.47
2022-09-21T04:31:49.205Z,3.73
2022-09-21T04:34:16.791Z,3.73
2022-09-21T04:36:44.436Z,4.80
2022-09-21T04:39:12.238Z,3.67
2022-09-21T04:41:39.925Z,4.60
2022-09-21T04:44:07.956Z,4.53
2022-09-21T04:46:37.305Z,3.63
2022-09-21T04:49:05.292Z,4.10
2022-09-21T04:51:33.183Z,4.40
2022-09-21T04:54:01.260Z,4.60
2022-09-21T04:56:29.108Z,4.20
2022-09-21T04:58:57.350Z,4.67
2022-09-21T05:01:25.223Z,4.17
2022-09-21T05:03:54.372Z,4.40
2022-09-21T05:06:22.071Z,3.77
2022-09-21T05:09:07.778Z,4.10
2022-09-21T05:11:35.738Z,3.70
2022-09-21T05:14:03.812Z,3.70
2022-09-21T05:16:31.551Z,4.07
2022-09-21T05:19:00.746Z,3.83
2022-09-21T05:21:28.682Z,4.17
2022-09-21T05:23:57.392Z,3.90
2022-09-21T05:26:25.306Z,4.90
2022-09-21T05:28:53.748Z,4.10
2022-09-21T05:31:42.319Z,3.80
2022-09-21T05:34:29.473Z,4.57
2022-09-21T05:37:04.524Z,4.10
2022-09-21T05:39:32.834Z,3.60
2022-09-21T05:42:01.184Z,3.67
2022-09-21T05:44:29.601Z,3.97
2022-09-21T05:47:03.080Z,3.87
2022-09-21T05:49:46.313Z,4.40
2022-09-21T05:52:22.177Z,4.93
2022-09-21T05:55:03.841Z,4.73
2022-09-21T05:57:45.408Z,5.20
2022-09-21T06:00:17.390Z,5.50
2022-09-21T06:03:04.104Z,5.80
2022-09-21T06:05:33.177Z,5.03
2022-09-21T06:08:01.014Z,4.60
2022-09-21T06:10:33.514Z,4.63
2022-09-21T06:13:01.483Z,4.50
2022-09-21T06:15:29.363Z,5.23
2022-09-21T06:17:57.000Z,6.20
2022-09-21T06:20:25.147Z,4.70
2022-09-21T06:22:54.160Z,5.50
2022-09-21T06:25:22.095Z,5.10
2022-09-21T06:27:49.829Z,5.00
2022-09-21T06:30:17.728Z,5.70
2022-09-21T06:32:45.506Z,5.70
2022-09-21T06:35:13.278Z,5.00
2022-09-21T06:37:41.978Z,5.27
2022-09-21T06:40:11.734Z,5.80
2022-09-21T06:42:39.722Z,5.70
2022-09-21T06:45:08.831Z,5.67
2022-09-21T06:47:36.509Z,6.97
2022-09-21T06:50:04.449Z,6.17
2022-09-21T06:52:33.217Z,5.80
2022-09-21T06:55:00.936Z,4.97
2022-09-21T06:57:30.145Z,4.43
2022-09-21T06:59:58.115Z,4.83
2022-09-21T07:02:25.845Z,5.10
2022-09-21T07:04:53.662Z,5.20
2022-09-21T07:07:21.471Z,6.13
2022-09-21T07:12:38.141Z,5.10
2022-09-21T07:15:07.548Z,4.53
2022-09-21T07:17:36.441Z,5.63
2022-09-21T07:20:06.345Z,4.87
2022-09-21T07:22:34.229Z,4.97
2022-09-21T07:25:01.988Z,4.40
2022-09-21T07:27:31.350Z,5.27
2022-09-21T07:30:00.351Z,5.40
2022-09-21T07:32:28.013Z,6.13
2022-09-21T07:34:57.061Z,4.83
2022-09-21T07:37:25.159Z,5.10
2022-09-21T07:39:53.539Z,6.27
2022-09-21T07:42:22.753Z,7.77
2022-09-21T07:44:51.781Z,6.20
2022-09-21T07:47:27.170Z,5.43
2022-09-21T07:49:55.602Z,5.77
2022-09-21T07:52:23.300Z,9.27
2022-09-21T07:54:51.025Z,9.60
2022-09-21T07:57:36.453Z,13.43
2022-09-21T08:00:05.183Z,9.13
2022-09-21T08:02:34.427Z,10.93
2022-09-21T08:05:02.275Z,16.43
2022-09-21T08:07:30.143Z,15.93
2022-09-21T08:09:58.534Z,13.17
2022-09-21T08:12:26.276Z,13.10
2022-09-21T08:14:54.035Z,15.03
2022-09-21T08:17:21.805Z,17.90
2022-09-21T08:19:50.964Z,15.33
2022-09-21T08:22:18.890Z,14.03
2022-09-21T08:24:48.168Z,11.93
2022-09-21T08:27:16.347Z,12.20
2022-09-21T08:29:44.157Z,9.23
2022-09-21T08:32:27.509Z,14.10
2022-09-21T08:35:01.090Z,14.07
2022-09-21T08:37:29.431Z,9.77
2022-09-21T08:39:57.075Z,8.70
2022-09-21T08:42:45.482Z,10.13
2022-09-21T08:45:19.261Z,10.80
2022-09-21T08:47:50.471Z,12.20
2022-09-21T08:50:32.057Z,8.30
2022-09-21T08:53:04.453Z,8.57
2022-09-21T08:55:32.507Z,7.93
2022-09-21T08:58:01.172Z,10.17
2022-09-21T09:00:35.607Z,6.13
2022-09-21T09:03:24.780Z,4.60
2022-09-21T09:06:00.582Z,5.87
2022-09-21T09:08:59.484Z,4.97
2022-09-21T09:11:45.271Z,5.03
2022-09-21T09:14:41.554Z,4.73
2022-09-21T09:17:28.231Z,4.40
2022-09-21T09:20:02.120Z,5.87
2022-09-21T09:22:35.365Z,5.50
2022-09-21T09:25:07.094Z,5.70
2022-09-21T09:27:38.897Z,6.00
2022-09-21T09:30:16.656Z,5.27
2022-09-21T09:32:56.647Z,5.73
2022-09-21T09:35:28.814Z,5.30
2022-09-21T09:38:01.604Z,4.83
2022-09-21T09:40:49.673Z,4.10
2022-09-21T09:43:31.963Z,4.67
2022-09-21T09:46:12.743Z,4.77
2022-09-21T09:48:56.315Z,4.13
2022-09-21T09:51:24.132Z,3.60
2022-09-21T09:53:56.258Z,3.27
2022-09-21T09:56:24.104Z,3.30
2022-09-21T09:58:55.615Z,3.07
2022-09-21T10:01:42.734Z,2.57
2022-09-21T10:04:12.677Z,2.47
2022-09-21T10:06:45.856Z,2.73
2022-09-21T10:09:26.315Z,3.20
2022-09-21T10:11:56.141Z,2.43
2022-09-21T10:14:26.768Z,2.87
2022-09-21T10:16:56.910Z,3.40
2022-09-21T10:19:26.847Z,2.33
2022-09-21T10:21:58.578Z,2.60
2022-09-21T10:24:30.768Z,2.30
2022-09-21T10:27:06.375Z,2.50
2022-09-21T10:29:42.020Z,1.87
2022-09-21T10:32:22.418Z,2.30
2022-09-21T10:35:20.262Z,2.73
2022-09-21T10:37:53.710Z,2.03
2022-09-21T10:40:37.875Z,1.80
2022-09-21T10:43:06.001Z,1.87
2022-09-21T10:45:37.137Z,1.97
2022-09-21T10:48:11.178Z,2.00
2022-09-21T10:50:41.356Z,1.60
2022-09-21T10:53:20.416Z,1.20
2022-09-21T10:56:14.600Z,1.77
2022-09-21T10:59:13.766Z,1.23
2022-09-21T11:01:46.669Z,0.80
2022-09-21T11:04:19.292Z,1.20
2022-09-21T11:06:50.969Z,1.30
2022-09-21T11:09:23.486Z,1.40
2022-09-21T11:11:58.127Z,1.17
2022-09-21T11:14:38.843Z,1.23
2022-09-21T11:17:14.581Z,1.70
2022-09-21T11:19:49.362Z,0.90
2022-09-21T11:22:28.868Z,1.17
2022-09-21T11:25:07.258Z,1.20
2022-09-21T11:27:40.554Z,1.30
2022-09-21T11:30:12.826Z,1.80
2022-09-21T11:33:03.829Z,2.20
2022-09-21T11:35:42.082Z,1.00
2022-09-21T11:38:14.372Z,1.47
2022-09-21T11:41:08.628Z,2.53
2022-09-21T11:43:51.619Z,1.10
2022-09-21T11:46:26.305Z,1.10
2022-09-21T11:49:08.402Z,1.33
2022-09-21T11:51:48.219Z,1.27
2022-09-21T11:54:37.995Z,1.20
2022-09-21T11:57:16.927Z,1.70
2022-09-21T11:59:58.303Z,0.93
2022-09-21T12:02:52.752Z,1.40
2022-09-21T12:05:27.798Z,1.83
2022-09-21T12:08:27.560Z,1.20
2022-09-21T12:11:03.583Z,1.30
2022-09-21T12:13:37.131Z,1.50
2022-09-21T12:16:19.670Z,1.27
2022-09-21T12:18:54.062Z,1.40
2022-09-21T12:21:25.670Z,1.03
2022-09-21T12:23:56.166Z,5.57
2022-09-21T12:26:27.202Z,1.23
2022-09-21T12:29:00.823Z,1.83
2022-09-21T12:31:34.342Z,1.10
2022-09-21T12:34:07.017Z,1.40
2022-09-21T12:36:41.130Z,1.60
2022-09-21T12:39:20.481Z,1.43
2022-09-21T12:41:55.574Z,1.40
2022-09-21T12:44:28.591Z,1.17
2022-09-21T12:47:09.329Z,1.30
2022-09-21T12:49:42.117Z,1.53
2022-09-21T12:52:11.350Z,1.50
2022-09-21T12:54:46.848Z,1.37
2022-09-21T12:57:49.213Z,1.23
2022-09-21T13:00:22.202Z,1.27
2022-09-21T13:02:58.630Z,1.27
2022-09-21T13:05:39.228Z,1.20
2022-09-21T13:08:13.480Z,1.33
2022-09-21T13:10:47.262Z,1.60
2022-09-21T13:13:25.002Z,1.43
2022-09-21T13:15:53.615Z,1.57
2022-09-21T13:18:27.179Z,1.20
2022-09-21T13:20:55.583Z,1.40
2022-09-21T13:23:29.210Z,1.30
2022-09-21T13:26:03.600Z,1.30
2022-09-21T13:29:25.631Z,1.27
2022-09-21T13:31:58.002Z,1.30
2022-09-21T13:34:30.044Z,1.10
2022-09-21T13:37:29.339Z,1.17
2022-09-21T13:40:40.228Z,0.83
2022-09-21T13:43:45.581Z,1.43
2022-09-21T13:46:49.301Z,1.60
2022-09-21T13:49:33.708Z,1.30
2022-09-21T13:52:07.338Z,1.97
2022-09-21T13:54:40.404Z,1.70
2022-09-21T13:57:19.182Z,1.30
2022-09-21T13:59:49.403Z,1.37
2022-09-21T14:02:32.839Z,1.77
2022-09-21T14:05:05.992Z,1.30
2022-09-21T14:07:36.389Z,1.43
2022-09-21T14:10:08.273Z,1.40
2022-09-21T14:12:44.405Z,1.70
2022-09-21T14:15:33.108Z,1.30
2022-09-21T14:18:39.669Z,1.83
2022-09-21T14:21:19.269Z,1.50
2022-09-21T14:24:24.108Z,1.10
2022-09-21T14:26:56.881Z,1.20
2022-09-21T14:29:30.127Z,1.33
2022-09-21T14:32:00.708Z,1.10
2022-09-21T14:34:42.736Z,1.43
2022-09-21T14:37:23.525Z,1.40
2022-09-21T14:39:54.442Z,1.47
2022-09-21T14:42:29.279Z,1.50
2022-09-21T14:45:00.335Z,1.93
2022-09-21T14:47:56.006Z,1.10
2022-09-21T14:50:33.311Z,1.50
2022-09-21T14:53:23.178Z,1.33
2022-09-21T14:56:03.510Z,1.23
2022-09-21T14:58:45.164Z,1.43
2022-09-21T15:01:38.664Z,1.50
2022-09-21T15:04:34.876Z,1.43
2022-09-21T15:07:34.811Z,1.43
2022-09-21T15:10:42.683Z,1.50
2022-09-21T15:13:22.632Z,1.73
2022-09-21T15:16:07.248Z,1.20
2022-09-21T15:18:41.692Z,1.73
2022-09-21T15:21:21.971Z,2.33
2022-09-21T15:23:51.479Z,1.30
2022-09-21T15:26:23.867Z,1.40
2022-09-21T15:29:11.522Z,1.47
2022-09-21T15:31:42.277Z,1.80
2022-09-21T15:34:11.836Z,1.70
2022-09-21T15:36:41.649Z,1.43
2022-09-21T15:39:22.980Z,1.30
2022-09-21T15:42:01.183Z,1.80
2022-09-21T15:44:34.530Z,1.77
2022-09-21T15:47:03.247Z,1.70
2022-09-21T15:49:31.479Z,1.90
2022-09-21T15:52:06.085Z,1.30
2022-09-21T15:54:36.363Z,0.77
2022-09-21T15:57:25.352Z,1.20
2022-09-21T15:59:54.625Z,1.90
2022-09-21T16:02:25.226Z,1.70
2022-09-21T16:04:53.548Z,1.70
2022-09-21T16:07:31.718Z,1.80
2022-09-21T16:09:59.820Z,1.30
2022-09-21T16:12:43.445Z,1.27
2022-09-21T16:15:25.040Z,1.20
2022-09-21T16:18:02.905Z,1.40
2022-09-21T16:20:43.892Z,1.30
2022-09-21T16:23:24.280Z,1.60
2022-09-21T16:25:57.082Z,1.93
2022-09-21T16:28:35.112Z,2.17
2022-09-21T16:31:24.526Z,2.10
2022-09-21T16:34:08.060Z,3.07
2022-09-21T16:36:42.946Z,1.90
2022-09-21T16:39:15.511Z,1.70
2022-09-21T16:41:52.916Z,1.60
2022-09-21T16:44:23.185Z,1.40
2022-09-21T16:47:00.757Z,1.37
2022-09-21T16:49:36.588Z,1.63
2022-09-21T16:52:07.658Z,1.93
2022-09-21T16:54:37.388Z,1.83
2022-09-21T16:57:07.147Z,2.37
2022-09-21T16:59:36.601Z,2.43
2022-09-21T17:02:06.045Z,2.30
2022-09-21T17:04:36.128Z,2.70
2022-09-21T17:07:06.050Z,2.93
2022-09-21T17:09:35.499Z,3.93
2022-09-21T17:12:04.476Z,3.87
2022-09-21T17:14:35.142Z,3.67
2022-09-21T17:17:08.383Z,4.17
2022-09-21T17:19:36.923Z,4.00
2022-09-21T17:22:06.885Z,4.40
2022-09-21T17:24:50.185Z,3.87
2022-09-21T17:27:20.980Z,3.93
2022-09-21T17:29:49.599Z,5.00
2022-09-21T17:32:21.182Z,3.53
2022-09-21T17:34:53.285Z,3.10
2022-09-21T17:37:21.809Z,3.57
2022-09-21T17:39:49.871Z,3.40
2022-09-21T17:42:21.123Z,4.60
2022-09-21T17:45:03.204Z,2.60
2022-09-21T17:47:33.973Z,3.03
2022-09-21T17:50:16.051Z,2.50
2022-09-21T17:53:02.624Z,2.90
2022-09-21T17:55:31.013Z,3.20
2022-09-21T17:58:17.243Z,3.43
2022-09-21T18:00:52.840Z,2.97
2022-09-21T18:03:24.873Z,4.47
2022-09-21T18:05:59.414Z,4.30
2022-09-21T18:08:28.192Z,3.80
2022-09-21T18:11:09.245Z,3.50
2022-09-21T18:13:48.096Z,3.80
2022-09-21T18:16:27.419Z,3.67
2022-09-21T18:19:16.161Z,4.37
2022-09-21T18:21:50.629Z,4.40
2022-09-21T18:24:22.508Z,4.00
2022-09-21T18:26:52.560Z,4.23
2022-09-21T18:29:40.309Z,5.80
2022-09-21T18:32:32.764Z,5.20
2022-09-21T18:35:15.334Z,6.33
2022-09-21T18:37:59.448Z,6.70
2022-09-21T18:40:37.205Z,6.67
2022-09-21T18:43:22.772Z,7.13
2022-09-21T18:45:58.462Z,6.70
2022-09-21T18:48:48.512Z,6.03
2022-09-21T18:51:24.600Z,6.33
2022-09-21T18:53:55.933Z,7.00
2022-09-21T18:56:24.688Z,7.97
2022-09-21T18:58:53.387Z,6.27
2022-09-21T19:01:22.760Z,4.17
2022-09-21T19:03:51.471Z,12.77
2022-09-21T19:06:40.244Z,7.87
2022-09-21T19:09:20.582Z,3.97
2022-09-21T19:11:54.994Z,4.53
2022-09-21T19:14:33.454Z,5.37
2022-09-21T19:17:14.629Z,3.20
2022-09-21T19:19:55.892Z,2.73
2022-09-21T19:22:35.978Z,4.00
2022-09-21T19:25:08.540Z,3.40
2022-09-21T19:27:40.086Z,3.00
2022-09-21T19:30:15.459Z,3.27
2022-09-21T19:32:47.117Z,6.20
2022-09-21T19:35:20.398Z,3.50
2022-09-21T19:37:50.386Z,2.63
2022-09-21T19:40:20.570Z,5.03
2022-09-21T19:43:20.646Z,2.90
2022-09-21T19:46:06.358Z,3.00
2022-09-21T19:48:43.139Z,2.60
2022-09-21T19:51:18.195Z,3.77
2022-09-21T19:54:11.381Z,4.47
2022-09-21T19:57:00.966Z,3.80
2022-09-21T19:59:44.498Z,4.37
2022-09-21T20:02:14.931Z,3.70
2022-09-21T20:04:50.812Z,3.20
2022-09-21T20:07:26.763Z,3.20
2022-09-21T20:10:09.789Z,3.00
2022-09-21T20:12:44.294Z,4.20
2022-09-21T20:15:17.710Z,3.73
2022-09-21T20:17:50.906Z,3.20
2022-09-21T20:20:22.691Z,4.07
2022-09-21T20:22:51.263Z,4.47
2022-09-21T20:25:25.905Z,3.97
2022-09-21T20:27:56.247Z,3.97
2022-09-21T20:30:26.132Z,4.20
2022-09-21T20:32:57.923Z,5.70
2022-09-21T20:35:27.665Z,3.93
2022-09-21T20:38:01.295Z,3.90
2022-09-21T20:40:32.146Z,4.00
2022-09-21T20:43:01.983Z,4.20
2022-09-21T20:45:30.623Z,3.70
2022-09-21T20:48:12.984Z,4.47
2022-09-21T20:50:41.742Z,4.50
2022-09-21T20:53:10.074Z,4.73
2022-09-21T20:55:39.896Z,4.23
2022-09-21T20:58:07.772Z,4.13
2022-09-21T21:00:35.625Z,4.13
2022-09-21T21:03:03.630Z,4.43
2022-09-21T21:05:31.429Z,4.57
2022-09-21T21:07:59.156Z,4.73
2022-09-21T21:10:26.834Z,4.60
2022-09-21T21:12:58.478Z,5.20
2022-09-21T21:15:26.241Z,5.17
2022-09-21T21:17:53.957Z,4.77
2022-09-21T21:20:22.259Z,5.20
2022-09-21T21:22:51.577Z,5.27
2022-09-21T21:25:19.476Z,4.90
2022-09-21T21:27:47.318Z,5.20
2022-09-21T21:30:16.635Z,5.20
2022-09-21T21:32:44.480Z,4.67
2022-09-21T21:35:12.217Z,5.70
2022-09-21T21:37:40.412Z,4.70
2022-09-21T21:40:10.098Z,4.30
2022-09-21T21:42:37.733Z,5.50
2022-09-21T21:45:06.102Z,5.70
2022-09-21T21:47:40.260Z,5.20
2022-09-21T21:50:09.308Z,5.10
2022-09-21T21:52:37.019Z,5.40
2022-09-21T21:55:05.030Z,4.33
2022-09-21T21:57:33.680Z,4.93
2022-09-21T22:00:01.441Z,4.57
2022-09-21T22:02:30.263Z,4.63
2022-09-21T22:04:59.323Z,4.53
2022-09-21T22:07:27.036Z,4.90
2022-09-21T22:09:55.567Z,6.20
2022-09-21T22:12:23.342Z,5.27
2022-09-21T22:14:51.232Z,5.50
2022-09-21T22:17:19.248Z,4.73
2022-09-21T22:19:46.876Z,4.93
2022-09-21T22:22:15.869Z,5.00
2022-09-21T22:24:43.567Z,4.70
2022-09-21T22:27:11.410Z,4.63
2022-09-21T22:29:40.619Z,3.60
2022-09-21T22:32:08.193Z,4.53
2022-09-21T22:34:35.841Z,4.60
2022-09-21T22:37:03.472Z,4.47
2022-09-21T22:39:32.560Z,4.50
2022-09-21T22:42:00.191Z,4.93
2022-09-21T22:44:27.879Z,3.87
2022-09-21T22:46:55.495Z,4.33
2022-09-21T22:49:23.159Z,4.23
2022-09-21T22:51:50.800Z,4.03
2022-09-21T22:54:18.469Z,5.40
2022-09-21T22:56:47.487Z,4.50
2022-09-21T22:59:15.098Z,4.23
2022-09-21T23:01:42.720Z,4.03
2022-09-21T23:04:12.859Z,4.63
2022-09-21T23:06:42.226Z,3.90
2022-09-21T23:09:13.617Z,3.90
2022-09-21T23:11:43.531Z,4.07
2022-09-21T23:14:12.976Z,3.67
2022-09-21T23:16:40.647Z,4.17
2022-09-21T23:19:15.514Z,4.13
2022-09-21T23:21:44.490Z,3.67
2022-09-21T23:24:12.888Z,3.47
2022-09-21T23:26:40.550Z,3.90
2022-09-21T23:29:13.533Z,3.40
2022-09-21T23:31:44.993Z,3.30
2022-09-21T23:34:13.907Z,3.03
2022-09-21T23:36:42.798Z,3.10
2022-09-21T23:39:12.547Z,2.87
2022-09-21T23:41:40.730Z,3.50
2022-09-21T23:44:08.770Z,2.70
2022-09-21T23:46:39.537Z,3.10
2022-09-21T23:49:07.666Z,3.00
2022-09-21T23:51:35.602Z,3.73
2022-09-21T23:54:04.180Z,3.70
2022-09-21T23:56:31.944Z,3.37
2022-09-21T23:59:00.257Z,3.30
